Time;durP1;ratioP1;P1;durP2;ratioP2;P2;SDS_P1;SDS_P2;PMS_P1;PMS_P2;Temp;Humidity;BMP_temperature;BMP_pressure;BME280_temperature;BME280_humidity;BME280_pressure;Samples;Min_cycle;Max_cycle;Signal;HPM_P1;HPM_P2
2021/03/03 00:01:39;;;;;;;;;;;;;;;1.03;100.00;100289.00;1711508;84;20149;-72
2021/03/03 00:04:06;;;;;;;;;;;;;;;0.87;100.00;100299.64;1711655;84;20692;-73
2021/03/03 00:06:34;;;;;;;;;;;;;;;0.95;100.00;100302.23;1711658;84;20232;-71
2021/03/03 00:09:03;;;;;;;;;;;;;;;0.91;100.00;100305.73;1711683;84;20509;-73
2021/03/03 00:11:31;;;;;;;;;;;;;;;0.97;100.00;100306.35;1711597;84;20225;-72
2021/03/03 00:13:59;;;;;;;;;;;;;;;0.98;100.00;100297.92;1711603;84;20221;-73
2021/03/03 00:16:26;;;;;;;;;;;;;;;0.91;100.00;100302.25;1711629;84;20166;-71
2021/03/03 00:18:54;;;;;;;;;;;;;;;1.04;100.00;100309.14;1711649;84;20141;-74
2021/03/03 00:21:23;;;;;;;;;;;;;;;0.91;100.00;100307.53;1711610;84;22453;-72
2021/03/03 00:23:51;;;;;;;;;;;;;;;1.07;100.00;100306.95;1711554;84;20117;-72
2021/03/03 00:26:22;;;;;;;;;;;;;;;0.94;100.00;100300.09;1711441;82;20219;-72
2021/03/03 00:28:49;;;;;;;;;;;;;;;1.07;100.00;100308.28;1711644;84;20577;-73
2021/03/03 00:31:17;;;;;;;;;;;;;;;1.00;100.00;100303.86;1711616;84;20126;-72
2021/03/03 00:33:45;;;;;;;;;;;;;;;1.11;100.00;100306.13;1711588;84;21163;-73
2021/03/03 00:36:13;;;;;;;;;;;;;;;0.96;100.00;100307.36;1711463;84;20221;-72
2021/03/03 00:38:42;;;;;;;;;;;;;;;0.93;100.00;100311.68;1711619;84;20122;-72
2021/03/03 00:41:10;;;;;;;;;;;;;;;1.02;100.00;100306.66;1711635;84;20639;-71
2021/03/03 00:43:38;;;;;;;;;;;;;;;1.00;100.00;100308.64;1711617;84;20173;-72
2021/03/03 00:46:05;;;;;;;;;;;;;;;0.83;100.00;100311.03;1711573;84;21383;-71
2021/03/03 00:48:33;;;;;;;;;;;;;;;0.78;100.00;100310.23;1711533;84;20231;-73
2021/03/03 00:51:03;;;;;;;;;;;;;;;0.96;100.00;100306.04;1711588;84;20245;-72
2021/03/03 00:53:31;;;;;;;;;;;;;;;0.76;100.00;100308.75;1711595;84;20678;-72
2021/03/03 00:56:00;;;;;;;;;;;;;;;0.86;100.00;100310.72;1711586;84;20231;-73
2021/03/03 00:58:29;;;;;;;;;;;;;;;0.88;100.00;100313.17;1711120;83;20837;-72
2021/03/03 01:00:59;;;;;;;;;;;;;;;0.88;100.00;100312.66;1711490;84;20229;-73
2021/03/03 01:03:29;;;;;;;;;;;;;;;0.80;100.00;100310.88;1711645;84;20260;-73
2021/03/03 01:05:58;;;;;;;;;;;;;;;0.76;100.00;100308.28;1710922;83;21124;-72
2021/03/03 01:08:28;;;;;;;;;;;;;;;0.68;100.00;100316.72;1711644;83;20287;-71
2021/03/03 01:10:56;;;;;;;;;;;;;;;0.68;100.00;100321.50;1711679;84;21787;-72
2021/03/03 01:13:25;;;;;;;;;;;;;;;0.77;100.00;100322.31;1711749;84;20118;-71
2021/03/03 01:15:54;;;;;;;;;;;;;;;0.76;100.00;100332.53;1711658;84;20228;-72
2021/03/03 01:18:23;;;;;;;;;;;;;;;0.62;100.00;100326.98;1710838;83;20244;-72
2021/03/03 01:20:51;;;;;;;;;;;;;;;0.60;100.00;100330.28;1711747;84;20137;-71
2021/03/03 01:23:18;;;;;;;;;;;;;;;0.61;100.00;100333.74;1711785;84;22531;-73
2021/03/03 01:25:46;;;;;;;;;;;;;;;0.63;100.00;100319.37;1711519;84;20209;-71
2021/03/03 01:28:14;;;;;;;;;;;;;;;0.63;100.00;100323.33;1711601;82;20224;-72
2021/03/03 01:30:43;;;;;;;;;;;;;;;0.61;100.00;100327.98;1707462;84;20815;-72
2021/03/03 01:33:27;;;;;;;;;;;;;;;0.65;100.00;100323.17;1711737;84;20220;-73
2021/03/03 01:35:55;;;;;;;;;;;;;;;0.53;100.00;100320.06;1711791;84;21271;-71
2021/03/03 01:38:23;;;;;;;;;;;;;;;0.71;100.00;100325.15;1711626;84;20240;-72
2021/03/03 01:40:51;;;;;;;;;;;;;;;0.53;100.00;100330.62;1711700;84;20145;-71
2021/03/03 01:43:19;;;;;;;;;;;;;;;0.47;100.00;100328.68;1711697;84;20236;-74
2021/03/03 01:45:48;;;;;;;;;;;;;;;0.53;100.00;100334.59;1711628;84;20253;-71
2021/03/03 01:48:16;;;;;;;;;;;;;;;0.46;100.00;100332.30;1711686;84;21137;-72
2021/03/03 01:50:45;;;;;;;;;;;;;;;0.54;100.00;100332.77;1711706;84;20134;-71
2021/03/03 01:53:15;;;;;;;;;;;;;;;0.52;100.00;100330.31;1711856;84;20141;-71
2021/03/03 01:55:43;;;;;;;;;;;;;;;0.49;100.00;100336.41;1711930;84;20237;-73
2021/03/03 01:58:11;;;;;;;;;;;;;;;0.47;100.00;100330.50;1712175;84;20250;-73
2021/03/03 02:00:40;;;;;;;;;;;;;;;0.61;100.00;100336.38;1684069;84;21283;-74
2021/03/03 02:03:10;;;;;;;;;;;;;;;0.58;100.00;100338.87;1711622;84;20228;-72
2021/03/03 02:05:38;;;;;;;;;;;;;;;0.51;100.00;100336.58;1711762;84;20531;-73
2021/03/03 02:08:19;;;;;;;;;;;;;;;0.56;100.00;100339.53;1711633;84;20276;-72
2021/03/03 02:10:57;;;;;;;;;;;;;;;0.46;100.00;100345.50;1711657;84;20169;-72
2021/03/03 02:13:35;;;;;;;;;;;;;;;0.49;100.00;100338.59;1677448;85;21842;-73
2021/03/03 02:16:04;;;;;;;;;;;;;;;0.52;100.00;100347.98;1677478;85;20235;-71
2021/03/03 02:18:34;;;;;;;;;;;;;;;0.46;100.00;100354.75;1677565;85;20151;-72
2021/03/03 02:21:16;;;;;;;;;;;;;;;0.46;100.00;100356.57;1654768;85;20568;-72
2021/03/03 02:24:02;;;;;;;;;;;;;;;0.50;100.00;100354.75;1647323;87;20245;-73
2021/03/03 02:26:33;;;;;;;;;;;;;;;0.54;100.00;100356.08;1647997;85;21303;-72
2021/03/03 02:29:09;;;;;;;;;;;;;;;0.43;100.00;100359.88;1653915;86;20545;-73
2021/03/03 02:31:42;;;;;;;;;;;;;;;0.33;100.00;100357.09;1653834;86;20206;-72
2021/03/03 02:34:13;;;;;;;;;;;;;;;0.30;100.00;100354.80;1653931;86;20240;-71
2021/03/03 02:36:42;;;;;;;;;;;;;;;0.30;100.00;100369.32;1653939;86;20252;-72
2021/03/03 02:39:09;;;;;;;;;;;;;;;0.27;100.00;100372.27;1653851;86;21192;-72
2021/03/03 02:41:37;;;;;;;;;;;;;;;0.27;100.00;100370.48;1653862;86;20274;-72
2021/03/03 02:44:06;;;;;;;;;;;;;;;0.26;100.00;100367.49;1653904;86;20240;-72
2021/03/03 02:46:33;;;;;;;;;;;;;;;0.26;100.00;100364.03;1653838;86;20236;-72
2021/03/03 02:49:02;;;;;;;;;;;;;;;0.34;100.00;100386.46;1653952;86;20277;-73
2021/03/03 02:51:33;;;;;;;;;;;;;;;0.35;100.00;100383.66;1680742;85;21678;-73
2021/03/03 02:54:02;;;;;;;;;;;;;;;0.27;100.00;100382.36;1687032;85;20151;-74
2021/03/03 02:56:30;;;;;;;;;;;;;;;0.23;100.00;100385.50;1687137;85;20230;-74
2021/03/03 02:58:58;;;;;;;;;;;;;;;0.27;100.00;100388.96;1687203;84;20230;-73
2021/03/03 03:01:26;;;;;;;;;;;;;;;0.36;100.00;100387.13;1661866;85;20291;-73
2021/03/03 03:04:13;;;;;;;;;;;;;;;0.44;100.00;100392.39;1688943;85;20159;-74
2021/03/03 03:07:00;;;;;;;;;;;;;;;0.46;100.00;100394.37;1688667;85;20175;-72
2021/03/03 03:09:47;;;;;;;;;;;;;;;0.48;100.00;100396.86;1687946;85;20190;-71
2021/03/03 03:12:33;;;;;;;;;;;;;;;0.26;100.00;100397.86;1664049;85;20151;-72
2021/03/03 03:15:20;;;;;;;;;;;;;;;0.20;100.00;100386.16;1663993;85;20168;-72
2021/03/03 03:17:51;;;;;;;;;;;;;;;0.20;100.00;100390.62;1687018;85;21396;-72
2021/03/03 03:20:19;;;;;;;;;;;;;;;0.09;100.00;100390.44;1687074;84;20505;-72
2021/03/03 03:22:47;;;;;;;;;;;;;;;-0.07;100.00;100392.59;1686976;85;20150;-72
2021/03/03 03:25:16;;;;;;;;;;;;;;;-0.12;100.00;100389.62;1686971;85;20225;-72
2021/03/03 03:27:44;;;;;;;;;;;;;;;-0.08;100.00;100392.73;1694983;84;20500;-72
2021/03/03 03:30:12;;;;;;;;;;;;;;;-0.15;100.00;100397.84;1702751;84;22581;-74
2021/03/03 03:32:40;;;;;;;;;;;;;;;-0.15;100.00;100393.06;1702717;84;20170;-73
2021/03/03 03:35:10;;;;;;;;;;;;;;;-0.14;100.00;100402.14;1702776;84;20162;-72
2021/03/03 03:37:38;;;;;;;;;;;;;;;-0.20;100.00;100398.83;1702713;84;20613;-71
2021/03/03 03:40:07;;;;;;;;;;;;;;;-0.20;100.00;100399.33;1702760;84;20316;-72
2021/03/03 03:42:35;;;;;;;;;;;;;;;-0.27;100.00;100399.14;1702740;84;21169;-72
2021/03/03 03:45:04;;;;;;;;;;;;;;;-0.25;100.00;100400.63;1702606;84;20117;-72
2021/03/03 03:47:33;;;;;;;;;;;;;;;-0.31;100.00;100396.52;1702784;84;20149;-72
2021/03/03 03:50:03;;;;;;;;;;;;;;;-0.15;100.00;100403.11;1678940;84;20221;-71
2021/03/03 03:52:30;;;;;;;;;;;;;;;-0.27;100.00;100401.31;1702801;84;20513;-72
2021/03/03 03:54:59;;;;;;;;;;;;;;;-0.29;100.00;100398.00;1702888;84;22152;-72
2021/03/03 03:57:27;;;;;;;;;;;;;;;-0.44;100.00;100401.77;1702758;84;20611;-71
2021/03/03 03:59:54;;;;;;;;;;;;;;;-0.28;100.00;100402.78;1702764;84;20150;-72
2021/03/03 04:02:24;;;;;;;;;;;;;;;-0.39;100.00;100402.61;1699280;84;20488;-72
2021/03/03 04:04:52;;;;;;;;;;;;;;;-0.36;100.00;100407.55;1702755;84;20225;-72
2021/03/03 04:07:19;;;;;;;;;;;;;;;-0.23;100.00;100407.89;1702893;84;22274;-72
2021/03/03 04:09:47;;;;;;;;;;;;;;;-0.28;100.00;100408.05;1702602;84;20146;-72
2021/03/03 04:12:15;;;;;;;;;;;;;;;-0.28;100.00;100413.33;1702761;84;20122;-71
2021/03/03 04:14:42;;;;;;;;;;;;;;;-0.29;100.00;100411.69;1702759;84;20342;-72
2021/03/03 04:17:10;;;;;;;;;;;;;;;-0.38;100.00;100413.47;1702707;84;20249;-72
2021/03/03 04:19:39;;;;;;;;;;;;;;;-0.36;100.00;100418.10;1702658;84;20158;-72
2021/03/03 04:22:07;;;;;;;;;;;;;;;-0.33;100.00;100419.09;1702798;84;20892;-72
2021/03/03 04:24:35;;;;;;;;;;;;;;;-0.19;100.00;100420.78;1702705;84;20489;-72
2021/03/03 04:27:03;;;;;;;;;;;;;;;-0.31;100.00;100422.89;1677160;84;20229;-72
2021/03/03 04:29:30;;;;;;;;;;;;;;;-0.34;100.00;100417.92;1687040;85;20221;-72
2021/03/03 04:31:58;;;;;;;;;;;;;;;-0.39;100.00;100418.91;1686936;84;21824;-72
2021/03/03 04:34:26;;;;;;;;;;;;;;;-0.52;100.00;100422.83;1686981;84;20301;-72
2021/03/03 04:36:54;;;;;;;;;;;;;;;-0.44;100.00;100424.19;1687003;85;20224;-72
2021/03/03 04:39:22;;;;;;;;;;;;;;;-0.37;100.00;100433.58;1687168;85;20989;-71
2021/03/03 04:41:49;;;;;;;;;;;;;;;-0.42;100.00;100433.73;1687278;85;20225;-72
2021/03/03 04:44:16;;;;;;;;;;;;;;;-0.39;100.00;100440.00;1660206;85;21236;-72
2021/03/03 04:46:44;;;;;;;;;;;;;;;-0.35;100.00;100434.75;1687064;85;20218;-72
2021/03/03 04:49:12;;;;;;;;;;;;;;;-0.29;100.00;100443.35;1687208;85;20485;-72
2021/03/03 04:51:40;;;;;;;;;;;;;;;-0.41;100.00;100444.14;1687187;85;21201;-72
2021/03/03 04:54:13;;;;;;;;;;;;;;;-0.42;100.00;100450.38;1660138;85;20230;-72
2021/03/03 04:56:41;;;;;;;;;;;;;;;-0.32;100.00;100451.56;1687165;85;21260;-71
2021/03/03 04:59:09;;;;;;;;;;;;;;;-0.34;100.00;100458.34;1687066;84;20229;-71
2021/03/03 05:01:38;;;;;;;;;;;;;;;-0.31;100.00;100456.69;1687058;85;20222;-71
2021/03/03 05:04:06;;;;;;;;;;;;;;;-0.25;100.00;100462.62;1687212;85;20980;-71
2021/03/03 05:06:33;;;;;;;;;;;;;;;-0.25;100.00;100465.77;1687101;84;20242;-71
2021/03/03 05:09:04;;;;;;;;;;;;;;;-0.26;100.00;100468.91;1687215;85;21377;-71
2021/03/03 05:11:32;;;;;;;;;;;;;;;-0.22;100.00;100474.20;1687140;85;20222;-71
2021/03/03 05:14:03;;;;;;;;;;;;;;;-0.21;100.00;100477.66;1685334;84;20250;-72
2021/03/03 05:16:31;;;;;;;;;;;;;;;-0.17;100.00;100480.32;1686373;85;20302;-71
2021/03/03 05:18:59;;;;;;;;;;;;;;;-0.12;100.00;100479.34;1686373;85;20301;-72
2021/03/03 05:21:27;;;;;;;;;;;;;;;-0.07;100.00;100490.23;1686687;85;21288;-72
2021/03/03 05:23:55;;;;;;;;;;;;;;;-0.05;100.00;100485.63;1686600;85;20505;-72
2021/03/03 05:26:23;;;;;;;;;;;;;;;-0.09;100.00;100490.89;1686343;85;20167;-72
2021/03/03 05:28:52;;;;;;;;;;;;;;;-0.14;100.00;100492.37;1686339;84;20218;-72
2021/03/03 05:31:19;;;;;;;;;;;;;;;0.06;100.00;100488.44;1686440;85;20230;-72
2021/03/03 05:33:49;;;;;;;;;;;;;;;0.14;100.00;100492.41;1682110;85;22579;-72
2021/03/03 05:36:17;;;;;;;;;;;;;;;0.32;100.00;100490.11;1686410;85;20427;-74
2021/03/03 05:38:46;;;;;;;;;;;;;;;0.39;100.00;100498.56;1686235;85;20632;-73
2021/03/03 05:41:14;;;;;;;;;;;;;;;0.62;100.00;100500.04;1686457;85;20333;-72
2021/03/03 05:43:42;;;;;;;;;;;;;;;0.65;100.00;100498.88;1686411;85;20262;-72
2021/03/03 05:46:09;;;;;;;;;;;;;;;0.85;100.00;100500.17;1686967;85;21209;-72
2021/03/03 05:48:41;;;;;;;;;;;;;;;0.91;100.00;100497.38;1659531;85;20309;-74
2021/03/03 05:51:09;;;;;;;;;;;;;;;1.04;100.00;100501.64;1686619;85;20250;-73
2021/03/03 05:53:37;;;;;;;;;;;;;;;1.10;100.00;100500.12;1686786;85;20280;-74
2021/03/03 05:56:07;;;;;;;;;;;;;;;0.98;100.00;100507.61;1686498;84;20221;-74
2021/03/03 05:58:38;;;;;;;;;;;;;;;1.13;100.00;100509.55;1686719;85;21391;-73
2021/03/03 06:01:08;;;;;;;;;;;;;;;1.23;100.00;100506.23;1660057;85;20711;-73
2021/03/03 06:03:37;;;;;;;;;;;;;;;1.11;100.00;100495.69;1686463;85;20571;-73
2021/03/03 06:06:06;;;;;;;;;;;;;;;1.17;100.00;100496.33;1686649;85;20234;-73
2021/03/03 06:08:35;;;;;;;;;;;;;;;1.19;100.00;100503.59;1686834;83;20229;-74
2021/03/03 06:11:05;;;;;;;;;;;;;;;1.28;100.00;100509.20;1686925;85;21208;-71
2021/03/03 06:13:33;;;;;;;;;;;;;;;1.20;100.00;100509.20;1686488;85;20226;-73
2021/03/03 06:16:01;;;;;;;;;;;;;;;1.38;100.00;100518.27;1686210;85;20293;-73
2021/03/03 06:18:29;;;;;;;;;;;;;;;1.40;100.00;100517.60;1686510;85;20238;-74
2021/03/03 06:20:57;;;;;;;;;;;;;;;1.43;100.00;100519.39;1686428;85;20249;-72
2021/03/03 06:23:29;;;;;;;;;;;;;;;1.43;100.00;100518.07;1686837;85;22413;-72
2021/03/03 06:26:03;;;;;;;;;;;;;;;1.53;100.00;100516.55;1686662;85;20229;-73
2021/03/03 06:28:37;;;;;;;;;;;;;;;1.63;100.00;100521.64;1693725;84;20241;-73
2021/03/03 06:31:37;;;;;;;;;;;;;;;1.79;100.00;100519.41;1702442;84;20724;-73
2021/03/03 06:34:14;;;;;;;;;;;;;;;1.82;100.00;100525.20;1700909;84;20284;-73
2021/03/03 06:37:02;;;;;;;;;;;;;;;1.82;100.00;100523.05;1701944;84;21827;-72
2021/03/03 06:39:36;;;;;;;;;;;;;;;1.89;100.00;100526.16;1700977;84;20288;-73
2021/03/03 06:42:07;;;;;;;;;;;;;;;2.04;100.00;100532.05;1701430;84;20280;-74
2021/03/03 06:44:56;;;;;;;;;;;;;;;2.18;100.00;100529.98;1702090;84;20236;-73
2021/03/03 06:47:25;;;;;;;;;;;;;;;2.38;100.00;100529.49;1702286;84;20237;-73
2021/03/03 06:49:56;;;;;;;;;;;;;;;2.61;100.00;100532.98;1702460;84;21235;-73
2021/03/03 06:52:39;;;;;;;;;;;;;;;2.57;100.00;100523.25;1656067;84;20281;-72
2021/03/03 06:55:08;;;;;;;;;;;;;;;2.91;100.00;100528.57;1702167;84;20296;-73
2021/03/03 06:57:36;;;;;;;;;;;;;;;2.89;100.00;100527.10;1702451;84;20276;-72
2021/03/03 07:00:11;;;;;;;;;;;;;;;2.83;100.00;100528.66;1701770;84;20491;-72
2021/03/03 07:02:43;;;;;;;;;;;;;;;2.83;100.00;100519.38;1701713;84;21208;-74
2021/03/03 07:05:15;;;;;;;;;;;;;;;2.54;100.00;100519.60;1701988;84;20133;-74
2021/03/03 07:07:43;;;;;;;;;;;;;;;2.62;100.00;100514.77;1701942;84;20234;-73
2021/03/03 07:10:11;;;;;;;;;;;;;;;2.66;100.00;100525.82;1702233;84;20149;-74
2021/03/03 07:12:49;;;;;;;;;;;;;;;3.05;100.00;100530.94;1702341;84;20500;-75
2021/03/03 07:15:18;;;;;;;;;;;;;;;2.36;100.00;100525.20;1702123;84;21664;-75
2021/03/03 07:17:47;;;;;;;;;;;;;;;2.65;100.00;100532.14;1702053;84;20138;-75
2021/03/03 07:20:16;;;;;;;;;;;;;;;2.65;100.00;100534.79;1701750;84;20246;-72
2021/03/03 07:22:53;;;;;;;;;;;;;;;2.83;100.00;100530.48;1702307;84;20248;-73
2021/03/03 07:25:30;;;;;;;;;;;;;;;3.09;100.00;100537.55;1671118;84;20532;-73
2021/03/03 07:27:56;;;;;;;;;;;;;;;2.55;100.00;100536.36;1665814;86;21236;-73
2021/03/03 07:30:35;;;;;;;;;;;;;;;2.57;100.00;100537.83;1637548;86;20643;-73
2021/03/03 07:33:36;;;;;;;;;;;;;;;2.60;100.00;100539.77;1666496;86;20150;-73
2021/03/03 07:36:46;;;;;;;;;;;;;;;2.35;100.00;100538.14;1639340;86;20253;-73
2021/03/03 07:39:13;;;;;;;;;;;;;;;2.73;100.00;100543.99;1646831;87;20301;-72
2021/03/03 07:41:43;;;;;;;;;;;;;;;2.76;100.00;100542.30;1675609;85;21212;-72
2021/03/03 07:44:14;;;;;;;;;;;;;;;2.57;100.00;100538.30;1647895;87;20131;-73
2021/03/03 07:46:42;;;;;;;;;;;;;;;2.44;100.00;100536.75;1676850;85;20243;-72
2021/03/03 07:49:20;;;;;;;;;;;;;;;2.58;100.00;100536.81;1676229;85;20315;-73
2021/03/03 07:51:49;;;;;;;;;;;;;;;2.68;100.00;100546.36;1648014;87;20607;-75
2021/03/03 07:54:17;;;;;;;;;;;;;;;2.51;100.00;100539.02;1676190;85;21897;-73
2021/03/03 07:56:45;;;;;;;;;;;;;;;2.71;100.00;100537.53;1676750;84;20520;-73
2021/03/03 07:59:13;;;;;;;;;;;;;;;2.44;100.00;100536.25;1647811;87;20214;-72
2021/03/03 08:01:41;;;;;;;;;;;;;;;2.67;100.00;100540.71;1676283;84;20235;-72
2021/03/03 08:04:11;;;;;;;;;;;;;;;2.94;100.00;100541.50;1676512;85;20247;-73
2021/03/03 08:06:39;;;;;;;;;;;;;;;3.31;100.00;100546.95;1630330;85;22083;-74
2021/03/03 08:09:09;;;;;;;;;;;;;;;3.42;100.00;100539.85;1676808;85;20240;-74
2021/03/03 08:11:41;;;;;;;;;;;;;;;3.50;100.00;100542.41;1676610;84;20795;-74
2021/03/03 08:14:37;;;;;;;;;;;;;;;3.49;100.00;100539.95;1676609;84;20291;-73
2021/03/03 08:17:07;;;;;;;;;;;;;;;3.37;100.00;100544.38;1645848;87;20565;-73
2021/03/03 08:19:58;;;;;;;;;;;;;;;3.56;100.00;100541.69;1625001;87;20296;-72
2021/03/03 08:22:47;;;;;;;;;;;;;;;3.72;100.00;100541.98;1646313;87;20345;-73
2021/03/03 08:25:47;;;;;;;;;;;;;;;4.09;100.00;100537.52;1646384;87;20245;-74
2021/03/03 08:28:52;;;;;;;;;;;;;;;4.05;100.00;100545.05;1843615;77;20229;-72
2021/03/03 08:31:25;;;;;;;;;;;;;;;3.82;100.00;100545.68;1819005;79;20507;-71
2021/03/03 08:33:57;;;;;;;;;;;;;;;3.93;100.00;100541.75;1819273;79;21370;-72
2021/03/03 08:36:29;;;;;;;;;;;;;;;3.87;100.00;100541.96;1818958;79;20311;-72
2021/03/03 08:39:01;;;;;;;;;;;;;;;3.43;100.00;100543.66;1808949;78;20161;-72
2021/03/03 08:41:34;;;;;;;;;;;;;;;3.75;100.00;100539.46;1825041;78;20133;-72
2021/03/03 08:44:12;;;;;;;;;;;;;;;3.97;100.00;100541.19;1824723;78;20200;-72
2021/03/03 08:46:46;;;;;;;;;;;;;;;4.46;100.00;100547.66;1824625;78;22557;-71
2021/03/03 08:49:18;;;;;;;;;;;;;;;5.09;98.46;100545.11;1824961;78;20295;-70
2021/03/03 08:51:47;;;;;;;;;;;;;;;4.76;98.02;100538.21;1824477;78;20141;-72
2021/03/03 08:54:23;;;;;;;;;;;;;;;4.67;97.83;100538.33;1823989;78;20287;-73
2021/03/03 08:56:52;;;;;;;;;;;;;;;4.82;96.16;100539.58;1824408;78;20303;-72
2021/03/03 08:59:39;;;;;;;;;;;;;;;4.44;99.46;100540.37;1824901;78;22370;-73
2021/03/03 09:02:20;;;;;;;;;;;;;;;4.81;97.90;100540.60;1824274;78;20128;-72
2021/03/03 09:04:53;;;;;;;;;;;;;;;4.93;96.15;100543.05;1824776;78;20491;-71
2021/03/03 09:07:25;;;;;;;;;;;;;;;4.58;97.34;100535.50;1824758;78;20329;-71
2021/03/03 09:09:59;;;;;;;;;;;;;;;4.56;96.91;100534.86;1825255;78;20585;-71
2021/03/03 09:12:32;;;;;;;;;;;;;;;4.50;97.16;100543.59;1825189;78;21201;-72
2021/03/03 09:15:02;;;;;;;;;;;;;;;4.65;97.18;100543.00;1792986;78;20585;-71
2021/03/03 09:17:32;;;;;;;;;;;;;;;4.79;97.30;100540.48;1824795;78;20133;-72
2021/03/03 09:20:02;;;;;;;;;;;;;;;5.22;95.81;100540.38;1824923;78;20527;-70
2021/03/03 09:22:40;;;;;;;;;;;;;;;5.94;88.96;100549.33;1824624;78;20299;-71
2021/03/03 09:25:12;;;;;;;;;;;;;;;6.29;85.81;100545.23;1823326;78;22096;-70
2021/03/03 09:27:42;;;;;;;;;;;;;;;5.84;87.27;100544.03;1820553;78;20578;-72
2021/03/03 09:30:12;;;;;;;;;;;;;;;5.87;85.21;100552.44;1787996;79;20283;-71
2021/03/03 09:32:41;;;;;;;;;;;;;;;5.97;86.07;100540.11;1816457;79;20578;-71
2021/03/03 09:35:11;;;;;;;;;;;;;;;5.79;85.99;100550.77;1816506;79;20487;-71
2021/03/03 09:37:43;;;;;;;;;;;;;;;5.99;84.51;100540.73;1815637;78;21355;-71
2021/03/03 09:40:16;;;;;;;;;;;;;;;6.31;83.44;100545.04;1815834;78;20184;-72
2021/03/03 09:42:46;;;;;;;;;;;;;;;6.57;82.05;100539.77;1815503;79;20539;-71
2021/03/03 09:45:19;;;;;;;;;;;;;;;6.51;81.29;100537.08;1815983;79;20391;-72
2021/03/03 09:47:47;;;;;;;;;;;;;;;5.97;82.56;100542.77;1815910;79;20224;-71
2021/03/03 09:50:18;;;;;;;;;;;;;;;6.83;82.00;100545.61;1815689;79;22167;-71
2021/03/03 09:52:52;;;;;;;;;;;;;;;7.21;78.44;100550.34;1816101;79;20507;-71
2021/03/03 09:55:22;;;;;;;;;;;;;;;7.19;79.26;100550.24;1815621;79;20571;-71
2021/03/03 09:57:54;;;;;;;;;;;;;;;6.59;78.76;100540.38;1815352;79;20283;-72
2021/03/03 10:00:24;;;;;;;;;;;;;;;6.37;80.98;100540.22;1815909;79;20224;-72
2021/03/03 10:02:53;;;;;;;;;;;;;;;6.86;80.25;100542.56;1815865;79;20539;-71
2021/03/03 10:05:27;;;;;;;;;;;;;;;6.22;80.66;100541.23;1808779;79;20598;-72
2021/03/03 10:07:59;;;;;;;;;;;;;;;6.34;81.53;100536.11;1815588;79;20224;-72
2021/03/03 10:10:30;;;;;;;;;;;;;;;6.63;81.24;100536.78;1815885;79;20181;-73
2021/03/03 10:12:58;;;;;;;;;;;;;;;6.56;78.74;100525.28;1815220;79;20331;-72
2021/03/03 10:15:37;;;;;;;;;;;;;;;7.28;77.81;100530.31;1816111;79;21179;-72
2021/03/03 10:18:10;;;;;;;;;;;;;;;6.62;78.61;100521.81;1815754;79;20224;-73
2021/03/03 10:20:52;;;;;;;;;;;;;;;6.65;78.77;100518.22;1815184;79;20335;-71
2021/03/03 10:23:24;;;;;;;;;;;;;;;7.00;78.32;100519.34;1815711;79;20308;-72
2021/03/03 10:26:05;;;;;;;;;;;;;;;6.88;75.46;100524.98;1815784;79;20506;-72
2021/03/03 10:28:34;;;;;;;;;;;;;;;6.28;80.13;100520.12;1815599;78;22363;-71
2021/03/03 10:31:04;;;;;;;;;;;;;;;7.00;77.99;100520.67;1815538;79;20499;-72
2021/03/03 10:33:40;;;;;;;;;;;;;;;7.45;73.31;100526.16;1815496;79;20160;-71
2021/03/03 10:36:21;;;;;;;;;;;;;;;7.25;73.67;100519.53;1815521;79;20223;-71
2021/03/03 10:38:58;;;;;;;;;;;;;;;7.36;73.50;100522.06;1815535;79;20598;-71
2021/03/03 10:41:30;;;;;;;;;;;;;;;7.06;73.85;100511.03;1815275;79;21437;-72
2021/03/03 10:43:58;;;;;;;;;;;;;;;7.72;74.70;100514.06;1815212;79;20244;-71
2021/03/03 10:46:26;;;;;;;;;;;;;;;7.13;77.74;100513.67;1815550;79;20579;-71
2021/03/03 10:48:56;;;;;;;;;;;;;;;6.70;78.42;100505.59;1815800;79;20185;-71
2021/03/03 10:51:34;;;;;;;;;;;;;;;7.01;75.53;100501.50;1815290;79;20216;-70
2021/03/03 10:54:03;;;;;;;;;;;;;;;7.08;75.78;100492.45;1815141;79;21379;-72
2021/03/03 10:56:35;;;;;;;;;;;;;;;7.26;75.57;100492.31;1815154;79;20378;-71
2021/03/03 10:59:06;;;;;;;;;;;;;;;7.36;75.19;100485.20;1815365;79;20590;-73
2021/03/03 11:01:46;;;;;;;;;;;;;;;7.65;73.85;100486.55;1815831;79;20484;-71
2021/03/03 11:04:14;;;;;;;;;;;;;;;7.41;75.44;100496.08;1815534;79;20322;-70
2021/03/03 11:06:42;;;;;;;;;;;;;;;7.59;73.29;100491.38;1815491;79;21139;-72
2021/03/03 11:09:11;;;;;;;;;;;;;;;6.77;74.54;100486.41;1815107;79;20904;-71
2021/03/03 11:11:51;;;;;;;;;;;;;;;6.85;75.50;100485.38;1815704;79;20137;-71
2021/03/03 11:14:19;;;;;;;;;;;;;;;7.07;75.57;100484.11;1815323;79;20137;-72
2021/03/03 11:16:47;;;;;;;;;;;;;;;7.27;75.17;100474.72;1815831;79;20208;-72
2021/03/03 11:19:15;;;;;;;;;;;;;;;7.43;73.05;100477.47;1815830;79;22277;-72
2021/03/03 11:21:44;;;;;;;;;;;;;;;7.50;72.75;100474.27;1815794;79;21142;-71
2021/03/03 11:24:12;;;;;;;;;;;;;;;6.99;71.44;100459.50;1815713;79;20220;-71
2021/03/03 11:26:43;;;;;;;;;;;;;;;7.16;71.77;100474.57;1815768;79;20177;-72
2021/03/03 11:29:11;;;;;;;;;;;;;;;7.65;70.20;100466.50;1815676;78;20267;-72
2021/03/03 11:31:39;;;;;;;;;;;;;;;7.74;70.59;100455.86;1815306;79;21723;-72
2021/03/03 11:34:07;;;;;;;;;;;;;;;7.63;68.40;100451.20;1815287;79;20267;-71
2021/03/03 11:36:36;;;;;;;;;;;;;;;7.51;70.20;100458.52;1814107;79;20601;-71
2021/03/03 11:39:05;;;;;;;;;;;;;;;7.22;72.04;100449.16;1815020;79;20233;-71
2021/03/03 11:41:33;;;;;;;;;;;;;;;7.26;72.43;100445.05;1815258;78;20219;-72
2021/03/03 11:44:02;;;;;;;;;;;;;;;7.06;71.17;100445.11;1814852;79;21204;-72
2021/03/03 11:46:32;;;;;;;;;;;;;;;7.05;72.34;100435.44;1814254;79;20267;-72
2021/03/03 11:49:01;;;;;;;;;;;;;;;8.03;69.80;100442.44;1815003;79;20329;-73
2021/03/03 11:51:32;;;;;;;;;;;;;;;7.77;70.20;100444.76;1815148;79;21435;-72
2021/03/03 11:54:04;;;;;;;;;;;;;;;7.48;69.31;100445.59;1812329;79;20287;-73
2021/03/03 11:56:31;;;;;;;;;;;;;;;7.65;68.37;100442.45;1815654;79;21196;-72
2021/03/03 11:59:00;;;;;;;;;;;;;;;7.31;68.11;100444.43;1814810;79;20224;-73
2021/03/03 12:01:29;;;;;;;;;;;;;;;7.58;68.57;100437.66;1815845;79;20254;-72
2021/03/03 12:03:57;;;;;;;;;;;;;;;7.07;70.76;100448.59;1816034;79;20212;-73
2021/03/03 12:06:25;;;;;;;;;;;;;;;7.25;69.74;100439.91;1815794;79;20271;-73
2021/03/03 12:08:54;;;;;;;;;;;;;;;7.22;70.33;100440.34;1815850;79;21058;-74
2021/03/03 12:11:27;;;;;;;;;;;;;;;7.34;69.67;100434.66;1815564;78;20210;-72
2021/03/03 12:13:55;;;;;;;;;;;;;;;7.72;68.36;100440.05;1814874;78;20295;-74
2021/03/03 12:16:24;;;;;;;;;;;;;;;8.20;66.29;100435.25;1815555;79;20201;-72
2021/03/03 12:18:53;;;;;;;;;;;;;;;7.93;65.89;100426.86;1815825;78;20227;-72
2021/03/03 12:21:21;;;;;;;;;;;;;;;8.09;66.05;100439.44;1815548;78;22121;-70
2021/03/03 12:23:49;;;;;;;;;;;;;;;7.73;68.28;100424.83;1815667;79;20867;-72
2021/03/03 12:26:20;;;;;;;;;;;;;;;7.63;70.55;100422.62;1805562;79;20257;-74
2021/03/03 12:28:48;;;;;;;;;;;;;;;7.73;67.91;100426.98;1815243;79;20303;-73
2021/03/03 12:31:16;;;;;;;;;;;;;;;7.67;67.87;100414.48;1816036;79;20511;-72
2021/03/03 12:33:45;;;;;;;;;;;;;;;7.91;68.03;100424.11;1815825;79;21368;-73
2021/03/03 12:36:13;;;;;;;;;;;;;;;7.81;68.10;100413.06;1815716;78;20231;-71
2021/03/03 12:38:49;;;;;;;;;;;;;;;8.08;66.39;100411.86;1814740;79;20216;-74
2021/03/03 12:41:16;;;;;;;;;;;;;;;7.41;69.31;100403.40;1815942;79;20345;-72
2021/03/03 12:43:45;;;;;;;;;;;;;;;7.76;67.89;100409.70;1815133;79;20243;-72
2021/03/03 12:46:13;;;;;;;;;;;;;;;7.59;67.90;100406.70;1815931;79;22297;-71
2021/03/03 12:48:41;;;;;;;;;;;;;;;7.95;67.44;100406.09;1815800;79;20165;-73
2021/03/03 12:51:09;;;;;;;;;;;;;;;8.53;66.55;100406.94;1815962;79;20220;-72
2021/03/03 12:53:37;;;;;;;;;;;;;;;8.88;62.92;100395.69;1816071;79;20224;-72
2021/03/03 12:56:06;;;;;;;;;;;;;;;8.48;63.16;100406.78;1816000;78;20224;-72
2021/03/03 12:58:35;;;;;;;;;;;;;;;8.24;62.90;100396.34;1816001;79;21140;-72